ENAN/ANX METAR and TAF weather

Enter ICAO airport designator
Station Type Date Time Source
ENAN METAR 2019/06/16 07:20 UTC NOAA

ENAN 160720Z VRB03KT 9999 OVC008 06/05 Q1017


Station Type Date Time Source
ENAN Decoded METAR 2019/06/16 07:20 UTC NOAA

Andoya, Norway (ENAN) 69-18N 016-09E 14M
Jun 16, 2019 - 03:20 AM EDT / 2019.06.16 0720 UTC
Wind: Variable at 3 MPH (3 KT):0
Visibility: greater than 7 mile(s):0
Sky conditions: overcast
Temperature: 42 F (6 C)
Dew Point: 41 F (5 C)
Relative Humidity: 93%
Pressure (altimeter): 30.03 in. Hg (1017 hPa)
ob: ENAN 160720Z VRB03KT 9999 OVC008 06/05 Q1017
cycle: 7

Station Type Date Time Source
ENAN TAF 2019/06/16 06:57 UTC NOAA

TAF TAF ENAN 160500Z 1606/1706 36008KT 9999 BKN008
BECMG 1609/1612 04018KT FEW006

Example: see airport list